Date,TemperatureHighF,TemperatureAvgF,TemperatureLowF,DewpointHighF,DewpointAvgF,DewpointLowF,HumidityHigh,HumidityAvg,HumidityLow,PressureMaxIn,PressureMinIn,WindSpeedMaxMPH,WindSpeedAvgMPH,GustSpeedMaxMPH,PrecipitationSumIn
2013-2-6,39,35,31,21,19,16,65,52,39,29.65,29.56,1,0,5,0.00
2013-2-7,38,33,30,28,24,21,78,68,53,29.87,29.65,3,1,12,0.00
2013-2-8,35,32,29,25,22,17,79,67,49,29.98,29.85,2,0,9,0.00
2013-2-9,34,31,29,24,19,16,78,61,52,30.10,29.98,4,1,8,0.00
2013-2-10,32,30,28,21,16,13,71,57,45,30.09,29.94,3,1,8,0.00
2013-2-11,30,28,25,19,16,13,71,61,50,29.95,29.80,3,1,7,0.00
2013-2-12,31,29,28,26,22,18,82,74,64,29.98,29.80,3,1,9,0.00
2013-2-13,32,30,28,26,22,21,85,74,65,30.35,29.98,3,2,9,0.00
2013-2-14,33,31,28,24,23,21,76,72,68,30.36,30.14,3,1,8,0.00
2013-2-15,35,33,31,28,26,23,80,75,72,30.19,30.09,1,0,5,0.00
2013-2-16,37,34,31,30,28,27,90,81,73,30.29,30.22,1,0,3,0.03
2013-2-17,36,34,33,31,29,25,88,81,67,30.29,30.25,1,0,3,0.01
2013-2-18,37,34,33,28,26,23,81,72,60,30.26,30.12,3,0,7,0.04
2013-2-19,34,33,31,30,26,22,88,77,63,30.13,29.87,5,1,15,0.13
2013-2-20,32,30,27,24,22,17,79,72,54,30.18,30.00,6,2,14,0.01
2013-2-21,28,26,24,21,17,13,82,69,55,30.19,30.12,3,1,8,0.01
2013-2-22,27,24,22,21,16,11,85,70,57,30.12,29.90,3,1,10,0.00
2013-2-23,31,28,25,27,23,18,91,83,73,29.91,29.78,3,1,7,0.00
2013-2-24,39,33,28,34,28,24,95,83,67,30.00,29.80,2,1,6,0.14
2013-2-25,42,39,36,38,36,34,95,89,83,30.31,29.98,3,0,5,0.10
2013-2-26,41,38,33,37,34,30,93,85,75,30.42,30.29,4,1,12,0.01
2013-2-27,38,36,33,31,31,29,90,81,74,30.47,30.41,3,1,9,0.01
2013-2-28,41,37,34,32,29,27,85,74,61,30.45,30.25,3,1,8,0.00
2013-3-1,39,36,35,28,27,24,76,69,60,30.28,30.17,5,2,10,0.00
2013-3-2,45,36,31,24,22,19,71,56,39,30.31,30.16,3,1,10,0.00
2013-3-3,39,35,30,26,23,20,66,61,53,30.28,30.15,5,1,13,0.00
2013-3-4,50,40,32,25,22,19,71,49,31,30.32,30.23,2,0,7,0.00
2013-3-5,55,41,30,30,25,20,70,54,37,30.24,29.93,3,1,7,0.00
2013-3-6,57,45,32,34,30,25,77,55,42,29.94,29.70,3,1,7,0.00
2013-3-7,51,46,41,44,38,33,88,73,62,29.71,29.64,2,0,5,0.00
2013-3-8,49,46,42,44,41,38,90,82,76,29.72,29.68,2,1,6,0.00
2013-3-9,43,42,40,40,39,37,93,89,86,29.72,29.64,1,0,5,0.01
2013-3-10,57,48,41,44,41,34,95,76,46,29.65,29.50,3,0,8,0.01
2013-3-11,46,32,27,41,24,18,90,72,63,29.75,29.50,4,1,13,0.13
2013-3-12,31,28,26,23,20,18,78,72,66,29.73,29.57,3,1,8,0.04
2013-3-13,30,26,24,22,17,14,86,68,58,29.78,29.57,3,2,10,0.04
2013-3-14,33,27,22,15,12,8,71,54,36,29.87,29.78,5,2,15,0.00
2013-3-15,32,27,22,16,14,8,74,58,38,30.11,29.85,5,2,13,0.00
2013-3-16,44,31,21,16,12,4,72,47,21,30.19,30.06,2,1,7,0.03
2013-3-17,44,33,24,17,14,10,58,45,32,30.07,29.74,3,1,10,0.03
2013-3-18,43,34,30,31,24,17,90,67,46,29.74,29.30,3,1,7,0.01
2013-3-19,43,36,32,33,30,27,92,79,64,29.64,29.29,2,0,9,0.23
2013-3-20,51,42,34,37,31,29,83,67,47,29.84,29.64,3,1,8,0.01
2013-3-21,40,36,31,35,25,19,85,67,51,30.11,29.83,7,2,17,0.01
2013-3-22,33,31,28,23,18,15,78,60,47,30.16,30.11,5,2,15,0.00
2013-3-23,34,27,19,17,7,-3,60,44,26,30.24,30.15,5,2,10,0.00
2013-3-24,37,22,16,9,3,-3,52,43,23,30.25,30.11,4,2,13,0.00
2013-3-25,31,28,23,11,8,5,54,44,32,30.14,29.96,4,2,13,0.00
2013-3-26,32,29,27,7,5,0,40,35,25,29.97,29.91,5,2,10,0.00
2013-3-27,31,30,28,23,17,6,72,59,38,29.96,29.93,4,1,8,0.00
2013-3-28,37,34,30,32,23,20,94,63,56,29.94,25.21,1,0,5,0.00
2013-3-29,40,37,35,25,21,18,67,53,40,29.81,29.75,3,1,8,0.00
2013-3-30,45,38,33,24,22,20,65,53,40,29.79,29.71,3,1,10,0.00
2013-3-31,38,34,31,27,22,19,80,62,49,29.84,29.75,6,2,17,0.00
2013-4-1,38,34,31,24,20,16,76,56,46,29.92,29.83,3,1,12,0.00
2013-4-2,41,37,32,22,20,18,63,50,42,29.99,29.91,3,2,8,0.00
2013-4-3,39,35,32,23,21,19,66,57,45,30.02,29.99,3,1,13,0.00
2013-4-4,40,36,32,27,25,23,73,64,55,30.00,29.88,3,1,9,0.00
2013-4-5,40,37,34,28,27,27,74,67,61,29.91,29.78,3,1,8,0.00
2013-4-6,40,37,35,28,28,27,73,67,60,30.18,29.90,3,1,8,0.00
2013-4-7,40,37,35,29,25,23,74,63,52,30.18,30.10,2,0,6,0.00
2013-4-8,51,41,33,24,22,20,69,50,31,30.10,29.78,2,1,8,0.00
2013-4-9,52,49,45,41,37,34,84,63,52,29.65,29.61,3,1,7,0.00
2013-4-10,57,48,42,42,40,37,89,73,49,29.84,29.62,4,1,11,0.03
2013-4-11,60,52,44,48,42,37,77,68,48,29.81,29.58,4,1,12,0.00
2013-4-12,60,55,50,52,46,39,97,73,52,29.77,29.51,7,1,18,0.01
2013-4-13,63,53,48,41,39,36,73,59,37,30.20,29.77,6,2,16,0.00
2013-4-14,66,55,43,41,38,36,77,56,36,30.32,30.21,3,0,6,0.00
2013-4-15,76,60,46,42,39,34,76,50,27,30.28,30.11,3,1,7,0.00
2013-4-16,74,62,53,47,40,34,60,45,33,30.13,30.06,4,1,7,0.00
2013-4-17,74,64,56,53,49,47,83,60,41,30.18,30.11,2,0,5,0.00
2013-4-18,82,67,54,53,50,47,79,56,34,30.11,29.90,4,1,11,0.00
2013-4-19,67,60,53,57,43,34,89,55,34,30.19,29.97,5,1,14,0.12
2013-4-20,55,51,36,45,41,29,81,69,58,30.27,29.85,4,1,8,0.03
2013-4-21,72,57,47,49,43,37,70,60,45,30.22,29.90,4,1,8,0.00
2013-4-22,73,60,49,54,48,42,80,67,44,29.99,29.88,3,1,8,0.00
2013-4-23,71,62,54,52,46,41,85,59,36,30.18,29.99,5,1,10,0.00
2013-4-24,76,63,51,45,42,40,69,49,31,30.29,30.18,4,0,11,0.00
2013-4-25,80,66,54,49,46,44,72,51,31,30.26,30.08,3,0,8,0.00
2013-4-26,85,69,54,52,46,43,73,48,26,30.08,29.64,4,1,10,0.00
2013-4-27,68,62,59,55,51,48,75,66,50,29.72,29.64,3,1,18,0.00
2013-4-28,52,51,50,42,41,40,73,70,64,30.09,30.07,1,0,3,0.56
2013-4-29,54,52,49,47,45,42,77,76,75,30.21,30.08,1,0,3,0.29
2013-4-30,52,51,50,46,46,45,85,82,77,30.22,30.20,1,0,2,0.00
2013-5-3,52,52,51,45,45,44,77,76,75,30.11,30.05,1,1,3,0.00
2013-5-4,61,54,51,53,48,43,94,83,69,30.18,30.07,3,0,6,0.03
2013-5-5,62,56,51,53,50,49,98,83,68,30.27,30.18,1,0,3,0.04
2013-5-6,57,56,54,52,51,50,86,83,78,30.27,30.23,1,0,3,0.01
2013-5-7,74,68,64,58,56,55,78,68,57,30.04,29.98,1,0,3,0.00
2013-5-8,67,63,59,58,57,56,92,83,70,30.03,30.00,0,0,2,0.00
2013-5-9,76,66,57,58,56,53,95,71,50,30.02,29.94,2,0,5,0.00
2013-5-10,65,58,54,58,54,-100,99,91,70,30.06,29.92,2,0,6,0.80
2013-5-11,56,54,53,54,52,48,99,92,75,30.06,30.00,1,0,3,0.80
2013-5-12,62,53,50,50,43,-100,93,74,48,30.09,29.96,4,1,17,0.03
2013-5-13,56,51,44,48,42,37,83,72,60,30.11,29.93,3,1,8,0.03
2013-5-14,71,60,53,50,46,42,85,62,37,29.94,29.78,5,1,11,0.00
2013-5-15,81,65,51,54,50,45,85,61,38,29.79,29.56,4,1,8,0.00
2013-5-16,82,65,57,55,36,-100,80,57,33,29.57,29.42,3,1,12,0.00
2013-5-17,79,68,61,58,50,-100,76,62,45,29.50,29.44,3,0,8,0.00
2013-5-18,75,64,56,58,53,48,96,69,41,29.81,29.50,5,1,15,0.04
2013-5-19,82,66,54,60,54,50,97,68,42,29.80,29.57,4,1,16,0.02
2013-5-20,73,61,52,54,46,41,86,61,33,29.85,29.72,6,2,11,0.01
2013-5-21,72,61,52,47,44,40,78,56,33,29.88,29.74,5,1,10,0.00
2013-5-22,65,56,49,51,46,40,87,71,51,29.79,29.62,5,2,15,0.07
2013-5-23,59,52,47,42,37,34,73,57,41,29.80,29.66,4,1,12,0.00
2013-5-24,59,50,42,44,41,38,87,70,48,29.79,29.68,7,1,12,0.05
2013-5-25,58,50,46,49,44,40,92,79,62,29.81,29.74,4,1,12,0.06
2013-5-26,51,48,45,45,43,41,96,84,73,29.74,29.62,6,2,15,0.02
2013-5-27,62,52,45,50,48,44,99,87,65,29.76,29.58,4,1,11,0.04
2013-5-28,71,58,48,53,48,44,93,72,43,29.76,29.51,3,1,10,0.00
2013-5-29,70,59,51,60,54,50,99,82,63,29.62,29.47,4,1,8,0.01
2013-5-30,56,53,51,54,51,49,99,95,82,29.64,29.40,4,1,13,0.83
2013-5-31,67,57,53,57,53,47,99,87,55,29.64,29.37,2,0,7,0.07
2013-6-1,60,53,48,60,52,47,99,97,84,29.69,29.60,4,1,11,0.09
2013-6-2,59,54,51,59,53,48,99,97,87,29.99,29.63,8,3,17,2.82
2013-6-3,53,50,47,52,50,47,99,97,91,30.08,29.99,5,2,12,0.89
2013-6-4,64,57,52,56,52,49,99,85,68,30.07,29.99,6,2,13,0.02
2013-6-5,69,58,51,55,48,44,95,72,42,30.06,30.03,4,2,13,0.00
2013-6-6,71,67,61,58,56,54,87,70,58,30.14,30.08,4,1,8,0.00
2013-6-7,80,66,56,61,58,55,99,77,50,30.11,30.01,3,0,7,0.00
2013-6-9,62,61,60,62,61,60,99,99,99,29.72,29.70,2,0,4,0.04
2013-6-10,64,61,59,64,60,55,99,96,85,29.83,29.67,4,1,11,0.31
2013-6-11,78,66,56,56,50,45,90,61,33,30.04,29.83,6,2,17,0.00
2013-6-12,80,67,54,54,50,46,90,57,33,30.12,30.04,4,0,8,0.00
2013-6-13,88,72,57,59,55,48,85,58,36,30.12,29.88,4,1,8,0.00
2013-6-14,75,68,60,59,52,47,96,61,40,30.11,29.88,5,1,16,0.07
2013-6-15,81,70,58,61,55,50,85,62,41,30.03,29.89,4,1,8,0.00
2013-6-16,85,73,63,61,55,48,81,57,33,30.03,29.94,4,1,12,0.00
2013-6-17,93,76,63,68,62,55,79,62,42,30.02,29.91,4,1,8,0.00
2013-6-18,97,82,70,76,71,66,90,70,48,29.99,29.92,4,0,11,0.00
2013-6-19,100,85,74,79,73,70,93,71,42,30.00,29.87,4,0,8,0.00